Helen Merril — WDF2994 — position and weather

sailwx.info

Track history (hours):
 
Tides and Currents Weather Stations Pressure Air Temp Water Temp Dewpoint Dewpoint Depression Visibility Wind Speed Wind Dir Waves Ship Positions

Helen Merril

Owner: SCF Waxler Marine LLC, St. Rose, LA. More information available from US FCC via Universal Licensing System and Coast Guard Vessel Documentation Center.

Last reported at 2016-Apr-27 18:30 UTC. Time now 2016-May-05 18:08 UTC.
Position N 29°23' W 094°46'.

Length 33 m; draft 6.1 m.

Type: Ship (hazmat cat A). MMSI: 367434260.

Date/timePositionNaut miles runAvg speedWind from/ knotsBaromVisibWave heightAir tempDewpointWater temp
2016-Apr-27 18:30N 29°23' W 094°46'1 0.8
2016-Apr-27 17:33N 29°24' W 094°45'2 1.8
2016-Apr-27 16:33N 29°25' W 094°44'2 1.8
2016-Apr-27 15:33N 29°24' W 094°45'9 0.6
2016-Apr-27 01:34N 29°30' W 094°53'9 9.1
2016-Apr-27 00:33N 29°38' W 094°58'7 7.0
2016-Apr-26 23:33N 29°44' W 095°03'4 3.5
2016-Apr-26 22:29N 29°47' W 095°04'0 0.1
2016-Apr-26 21:33N 29°47' W 095°04'0 0.1
2016-Apr-26 20:33N 29°47' W 095°04'0 0.2
2016-Apr-26 19:32N 29°47' W 095°04'0 0.4
2016-Apr-26 18:34N 29°47' W 095°04'1 0.8
2016-Apr-26 17:32N 29°46' W 095°05'1 0.2
2016-Apr-26 10:14N 29°46' W 095°06'1 2.1
2016-Apr-26 09:34N 29°47' W 095°05'0 0.0
2016-Apr-26 08:33N 29°47' W 095°05'0 0.0
2016-Apr-26 07:33N 29°47' W 095°05'0 0.0
2016-Apr-26 06:33N 29°47' W 095°05'0 0.0
2016-Apr-26 05:33N 29°47' W 095°05'0 0.0
2016-Apr-26 04:33N 29°47' W 095°05'0 0.0
2016-Apr-26 03:33N 29°47' W 095°05'0 0.0
2016-Apr-26 02:33N 29°47' W 095°05'0 0.0
2016-Apr-26 01:33N 29°47' W 095°05'0 0.0
2016-Apr-26 00:33N 29°47' W 095°05'0 0.0
2016-Apr-25 23:33N 29°47' W 095°05'0 0.0
2016-Apr-25 22:33N 29°47' W 095°05'0 0.0
2016-Apr-25 21:33N 29°47' W 095°05'0 0.0
2016-Apr-25 20:33N 29°47' W 095°05'0 0.2
2016-Apr-25 19:15N 29°47' W 095°04'0 0.0
2016-Apr-25 18:32N 29°47' W 095°04'0 0.3
2016-Apr-25 17:34N 29°47' W 095°04'1 1.4
2016-Apr-25 16:32N 29°46' W 095°05'1 1.0
2016-Apr-25 15:33N 29°47' W 095°05'0 0.0
2016-Apr-25 14:33N 29°47' W 095°05'0 0.0
2016-Apr-25 08:33N 29°47' W 095°05'0 0.0
2016-Apr-25 07:33N 29°47' W 095°05'0 0.0
2016-Apr-25 06:33N 29°47' W 095°05'0 0.0
2016-Apr-25 05:33N 29°47' W 095°05'0 0.4
2016-Apr-25 04:33N 29°47' W 095°04'1 1.0
2016-Apr-25 03:33N 29°46' W 095°05'1 0.2
2016-Apr-24 22:33N 29°45' W 095°06'0 0.2
2016-Apr-24 20:16N 29°46' W 095°06'0 0.0
2016-Apr-23 21:33N 29°46' W 095°05'0 0.2
2016-Apr-23 20:27N 29°46' W 095°06'0 0.0
2016-Apr-23 19:13N 29°46' W 095°06'0 0.0
2016-Apr-23 18:28N 29°46' W 095°06'0 0.0
2016-Apr-23 16:09N 29°46' W 095°06'0 0.0
2016-Apr-23 15:33N 29°46' W 095°06'1 0.9
2016-Apr-23 14:33N 29°46' W 095°05'0 0.2
2016-Apr-23 13:33N 29°46' W 095°05'1 0.7
2016-Apr-23 12:33N 29°46' W 095°05'0 0.2
2016-Apr-23 10:30N 29°46' W 095°06'2 0.1
2016-Apr-22 22:33N 29°47' W 095°04'2 0.2
2016-Apr-22 14:11N 29°46' W 095°06'1 0.0
2016-Apr-21 18:32N 29°46' W 095°05'1 0.3
2016-Apr-21 15:17N 29°46' W 095°06'0 0.0
2016-Apr-21 11:09N 29°46' W 095°06'0 0.0
2016-Apr-21 02:33N 29°46' W 095°06'0 0.0
2016-Apr-21 01:33N 29°46' W 095°06'0 0.0
2016-Apr-21 00:32N 29°46' W 095°06'0 0.0
2016-Apr-20 23:33N 29°46' W 095°06'0 0.0
2016-Apr-20 22:33N 29°46' W 095°06'0 0.0
2016-Apr-20 21:33N 29°46' W 095°06'0 0.0
2016-Apr-20 20:31N 29°46' W 095°06'0 0.5
2016-Apr-20 19:33N 29°45' W 095°06'0 0.0
2016-Apr-20 18:33N 29°45' W 095°06'0 0.0
2016-Apr-20 17:33N 29°45' W 095°06'0 0.1
2016-Apr-20 12:30N 29°46' W 095°06'0 0.0
2016-Apr-20 10:19N 29°46' W 095°06'0 0.0
2016-Apr-20 03:33N 29°46' W 095°06'0 0.0
2016-Apr-20 02:33N 29°46' W 095°06'0 0.0
2016-Apr-20 01:26N 29°46' W 095°06'0 0.0
2016-Apr-20 00:33N 29°46' W 095°06'0 0.0
2016-Apr-19 23:33N 29°46' W 095°06'0 0.0
2016-Apr-19 22:33N 29°46' W 095°06'0 0.0
2016-Apr-19 21:33N 29°46' W 095°06'0 0.0
2016-Apr-19 20:33N 29°46' W 095°06'0 0.0
2016-Apr-19 19:29N 29°46' W 095°06'0 0.0
2016-Apr-19 18:33N 29°46' W 095°06'0 0.0
2016-Apr-19 17:33N 29°46' W 095°06'0 0.0
2016-Apr-19 16:33N 29°46' W 095°06'2 1.9
2016-Apr-19 15:34N 29°47' W 095°04'0 0.0
2016-Apr-19 14:34N 29°47' W 095°04'0 0.0
2016-Apr-19 13:33N 29°47' W 095°04'0 0.0
2016-Apr-19 08:18N 29°47' W 095°04'0 0.0
2016-Apr-19 07:32N 29°47' W 095°04'0 0.0
2016-Apr-19 06:33N 29°47' W 095°04'0 0.0
2016-Apr-19 05:33N 29°47' W 095°04'0 0.0
2016-Apr-19 04:29N 29°47' W 095°04'1 1.0
2016-Apr-19 03:33N 29°46' W 095°05'0 0.1
2016-Apr-19 02:33N 29°47' W 095°05'1 0.7
2016-Apr-19 01:33N 29°47' W 095°04'2 1.6
2016-Apr-19 00:33N 29°46' W 095°04'6 5.8
2016-Apr-18 23:33N 29°42' W 094°59'7 7.4
2016-Apr-18 22:33N 29°35' W 094°56'8 8.1
2016-Apr-18 21:33N 29°28' W 094°51'  
Track history (hours):
 
Tides and Currents Weather Stations Pressure Air Temp Water Temp Dewpoint Dewpoint Depression Visibility Wind Speed Wind Dir Waves Ship Positions

Helen Merril

Owner: SCF Waxler Marine LLC, St. Rose, LA. More information available from US FCC via Universal Licensing System and Coast Guard Vessel Documentation Center.

Last reported at 2016-Apr-27 18:30 UTC. Time now 2016-May-05 18:08 UTC.
Position N 29°23' W 094°46'.

Length 33 m; draft 6.1 m.

Type: Ship (hazmat cat A). MMSI: 367434260.

Date/timePositionNaut miles runAvg speedWind from/ knotsBaromVisibWave heightAir tempDewpointWater temp
2016-Apr-27 18:30N 29°23' W 094°46'1 0.8
2016-Apr-27 17:33N 29°24' W 094°45'2 1.8
2016-Apr-27 16:33N 29°25' W 094°44'2 1.8
2016-Apr-27 15:33N 29°24' W 094°45'9 0.6
2016-Apr-27 01:34N 29°30' W 094°53'9 9.1
2016-Apr-27 00:33N 29°38' W 094°58'7 7.0
2016-Apr-26 23:33N 29°44' W 095°03'4 3.5
2016-Apr-26 22:29N 29°47' W 095°04'0 0.1
2016-Apr-26 21:33N 29°47' W 095°04'0 0.1
2016-Apr-26 20:33N 29°47' W 095°04'0 0.2
2016-Apr-26 19:32N 29°47' W 095°04'0 0.4
2016-Apr-26 18:34N 29°47' W 095°04'1 0.8
2016-Apr-26 17:32N 29°46' W 095°05'1 0.2
2016-Apr-26 10:14N 29°46' W 095°06'1 2.1
2016-Apr-26 09:34N 29°47' W 095°05'0 0.0
2016-Apr-26 08:33N 29°47' W 095°05'0 0.0
2016-Apr-26 07:33N 29°47' W 095°05'0 0.0
2016-Apr-26 06:33N 29°47' W 095°05'0 0.0
2016-Apr-26 05:33N 29°47' W 095°05'0 0.0
2016-Apr-26 04:33N 29°47' W 095°05'0 0.0
2016-Apr-26 03:33N 29°47' W 095°05'0 0.0
2016-Apr-26 02:33N 29°47' W 095°05'0 0.0
2016-Apr-26 01:33N 29°47' W 095°05'0 0.0
2016-Apr-26 00:33N 29°47' W 095°05'0 0.0
2016-Apr-25 23:33N 29°47' W 095°05'0 0.0
2016-Apr-25 22:33N 29°47' W 095°05'0 0.0
2016-Apr-25 21:33N 29°47' W 095°05'0 0.0
2016-Apr-25 20:33N 29°47' W 095°05'0 0.2
2016-Apr-25 19:15N 29°47' W 095°04'0 0.0
2016-Apr-25 18:32N 29°47' W 095°04'0 0.3
2016-Apr-25 17:34N 29°47' W 095°04'1 1.4
2016-Apr-25 16:32N 29°46' W 095°05'1 1.0
2016-Apr-25 15:33N 29°47' W 095°05'0 0.0
2016-Apr-25 14:33N 29°47' W 095°05'0 0.0
2016-Apr-25 08:33N 29°47' W 095°05'0 0.0
2016-Apr-25 07:33N 29°47' W 095°05'0 0.0
2016-Apr-25 06:33N 29°47' W 095°05'0 0.0
2016-Apr-25 05:33N 29°47' W 095°05'0 0.4
2016-Apr-25 04:33N 29°47' W 095°04'1 1.0
2016-Apr-25 03:33N 29°46' W 095°05'1 0.2
2016-Apr-24 22:33N 29°45' W 095°06'0 0.2
2016-Apr-24 20:16N 29°46' W 095°06'0 0.0
2016-Apr-23 21:33N 29°46' W 095°05'0 0.2
2016-Apr-23 20:27N 29°46' W 095°06'0 0.0
2016-Apr-23 19:13N 29°46' W 095°06'0 0.0
2016-Apr-23 18:28N 29°46' W 095°06'0 0.0
2016-Apr-23 16:09N 29°46' W 095°06'0 0.0
2016-Apr-23 15:33N 29°46' W 095°06'1 0.9
2016-Apr-23 14:33N 29°46' W 095°05'0 0.2
2016-Apr-23 13:33N 29°46' W 095°05'1 0.7
2016-Apr-23 12:33N 29°46' W 095°05'0 0.2
2016-Apr-23 10:30N 29°46' W 095°06'2 0.1
2016-Apr-22 22:33N 29°47' W 095°04'2 0.2
2016-Apr-22 14:11N 29°46' W 095°06'1 0.0
2016-Apr-21 18:32N 29°46' W 095°05'1 0.3
2016-Apr-21 15:17N 29°46' W 095°06'0 0.0
2016-Apr-21 11:09N 29°46' W 095°06'0 0.0
2016-Apr-21 02:33N 29°46' W 095°06'0 0.0
2016-Apr-21 01:33N 29°46' W 095°06'0 0.0
2016-Apr-21 00:32N 29°46' W 095°06'0 0.0
2016-Apr-20 23:33N 29°46' W 095°06'0 0.0
2016-Apr-20 22:33N 29°46' W 095°06'0 0.0
2016-Apr-20 21:33N 29°46' W 095°06'0 0.0
2016-Apr-20 20:31N 29°46' W 095°06'0 0.5
2016-Apr-20 19:33N 29°45' W 095°06'0 0.0
2016-Apr-20 18:33N 29°45' W 095°06'0 0.0
2016-Apr-20 17:33N 29°45' W 095°06'0 0.1
2016-Apr-20 12:30N 29°46' W 095°06'0 0.0
2016-Apr-20 10:19N 29°46' W 095°06'0 0.0
2016-Apr-20 03:33N 29°46' W 095°06'0 0.0
2016-Apr-20 02:33N 29°46' W 095°06'0 0.0
2016-Apr-20 01:26N 29°46' W 095°06'0 0.0
2016-Apr-20 00:33N 29°46' W 095°06'0 0.0
2016-Apr-19 23:33N 29°46' W 095°06'0 0.0
2016-Apr-19 22:33N 29°46' W 095°06'0 0.0
2016-Apr-19 21:33N 29°46' W 095°06'0 0.0
2016-Apr-19 20:33N 29°46' W 095°06'0 0.0
2016-Apr-19 19:29N 29°46' W 095°06'0 0.0
2016-Apr-19 18:33N 29°46' W 095°06'0 0.0
2016-Apr-19 17:33N 29°46' W 095°06'0 0.0
2016-Apr-19 16:33N 29°46' W 095°06'2 1.9
2016-Apr-19 15:34N 29°47' W 095°04'0 0.0
2016-Apr-19 14:34N 29°47' W 095°04'0 0.0
2016-Apr-19 13:33N 29°47' W 095°04'0 0.0
2016-Apr-19 08:18N 29°47' W 095°04'0 0.0
2016-Apr-19 07:32N 29°47' W 095°04'0 0.0
2016-Apr-19 06:33N 29°47' W 095°04'0 0.0
2016-Apr-19 05:33N 29°47' W 095°04'0 0.0
2016-Apr-19 04:29N 29°47' W 095°04'1 1.0
2016-Apr-19 03:33N 29°46' W 095°05'0 0.1
2016-Apr-19 02:33N 29°47' W 095°05'1 0.7
2016-Apr-19 01:33N 29°47' W 095°04'2 1.6
2016-Apr-19 00:33N 29°46' W 095°04'6 5.8
2016-Apr-18 23:33N 29°42' W 094°59'7 7.4
2016-Apr-18 22:33N 29°35' W 094°56'8 8.1
2016-Apr-18 21:33N 29°28' W 094°51'  

Dump ship's entire track history